Time;durP1;ratioP1;P1;durP2;ratioP2;P2;SDS_P1;SDS_P2;PMS_P1;PMS_P2;Temp;Humidity;BMP_temperature;BMP_pressure;BME280_temperature;BME280_humidity;BME280_pressure;Samples;Min_cycle;Max_cycle;Signal;HPM_P1;HPM_P2
2021/08/16 00:00:31;;;;;;;24.83;14.60;;;28.10;79.90;;;;;;5033882;28;20044;-68
2021/08/16 00:03:35;;;;;;;26.60;14.32;;;28.10;80.10;;;;;;5033618;28;20041;-67
2021/08/16 00:06:39;;;;;;;23.67;15.52;;;28.20;79.80;;;;;;5033640;28;20049;-67
2021/08/16 00:09:43;;;;;;;30.85;15.50;;;28.30;80.50;;;;;;5033500;28;20037;-67
2021/08/16 00:12:48;;;;;;;26.15;15.30;;;28.30;80.90;;;;;;5033332;28;20060;-67
2021/08/16 00:15:52;;;;;;;24.65;15.23;;;28.30;80.80;;;;;;5033389;28;20056;-67
2021/08/16 00:18:56;;;;;;;23.02;15.45;;;28.20;81.30;;;;;;5033499;28;20500;-67
2021/08/16 00:22:00;;;;;;;29.17;16.17;;;28.30;81.50;;;;;;5033177;28;20100;-66
2021/08/16 00:25:04;;;;;;;27.63;16.08;;;28.30;81.50;;;;;;5032210;28;20118;-67
2021/08/16 00:28:08;;;;;;;30.75;17.75;;;28.30;82.30;;;;;;5032900;28;20048;-67
2021/08/16 00:31:12;;;;;;;22.05;17.17;;;28.30;82.80;;;;;;5033069;28;20056;-67
2021/08/16 00:34:16;;;;;;;28.77;17.90;;;28.30;83.00;;;;;;5033520;28;20052;-67
2021/08/16 00:37:20;;;;;;;31.17;17.35;;;28.10;83.50;;;;;;5032949;28;20037;-67
2021/08/16 00:40:25;;;;;;;28.05;16.17;;;28.10;84.00;;;;;;5032257;28;20048;-67
2021/08/16 00:43:29;;;;;;;26.52;18.02;;;28.10;84.30;;;;;;5033126;28;20064;-67
2021/08/16 00:46:34;;;;;;;34.58;17.92;;;28.00;84.60;;;;;;5032693;28;20523;-67
2021/08/16 00:49:38;;;;;;;25.35;17.20;;;27.90;85.30;;;;;;5032775;28;20048;-67
2021/08/16 00:52:44;;;;;;;23.17;16.05;;;27.90;85.60;;;;;;5032726;28;20056;-67
2021/08/16 00:55:49;;;;;;;24.75;16.65;;;27.90;85.20;;;;;;5032668;28;20048;-67
2021/08/16 00:59:03;;;;;;;33.28;16.98;;;28.00;84.90;;;;;;5032606;28;20044;-67
2021/08/16 01:02:07;;;;;;;26.60;15.68;;;28.10;84.50;;;;;;5032518;28;20052;-67
2021/08/16 01:05:14;;;;;;;28.65;16.05;;;28.00;84.40;;;;;;5032498;28;20058;-67
2021/08/16 01:08:19;;;;;;;26.17;16.50;;;28.00;84.20;;;;;;5032379;28;20044;-67
2021/08/16 01:11:24;;;;;;;25.65;16.95;;;27.90;84.30;;;;;;5032599;28;20048;-67
2021/08/16 01:14:28;;;;;;;27.90;16.40;;;27.80;84.90;;;;;;5032159;28;20508;-67
2021/08/16 01:17:33;;;;;;;22.60;16.63;;;27.70;85.20;;;;;;5032110;28;20041;-67
2021/08/16 01:20:36;;;;;;;28.35;15.85;;;27.70;84.50;;;;;;5032130;28;20052;-67
2021/08/16 01:23:41;;;;;;;23.83;15.80;;;27.70;84.20;;;;;;5032239;28;20052;-67
2021/08/16 01:26:47;;;;;;;23.98;15.90;;;27.70;83.90;;;;;;5032054;28;20052;-67
2021/08/16 01:29:51;;;;;;;25.40;15.63;;;27.40;84.60;;;;;;5032415;28;20060;-68
2021/08/16 01:32:55;;;;;;;22.15;15.43;;;27.40;84.70;;;;;;5032103;28;20052;-66
2021/08/16 01:35:59;;;;;;;23.15;15.15;;;27.40;83.60;;;;;;5031761;28;20216;-66
2021/08/16 01:39:04;;;;;;;26.17;14.90;;;27.30;83.00;;;;;;5031946;28;20056;-66
2021/08/16 01:42:08;;;;;;;19.83;13.93;;;27.40;82.30;;;;;;5031933;28;20048;-66
2021/08/16 01:45:12;;;;;;;18.88;13.68;;;27.40;81.80;;;;;;5031765;28;20056;-67
2021/08/16 01:48:16;;;;;;;21.17;13.27;;;27.40;81.40;;;;;;5031817;28;20503;-67
2021/08/16 01:51:20;;;;;;;21.73;13.20;;;27.50;80.80;;;;;;5032064;28;20044;-67
2021/08/16 01:54:24;;;;;;;17.70;12.10;;;27.50;79.40;;;;;;5031695;28;20070;-67
2021/08/16 01:57:28;;;;;;;20.02;12.27;;;27.60;79.60;;;;;;5031408;28;20500;-67
2021/08/16 02:00:32;;;;;;;21.05;12.93;;;27.60;78.80;;;;;;5031411;28;20424;-67
2021/08/16 02:03:36;;;;;;;21.98;13.38;;;27.60;78.40;;;;;;5031724;28;20389;-68
2021/08/16 02:06:40;;;;;;;20.20;12.18;;;27.60;78.00;;;;;;5031278;28;20036;-68
2021/08/16 02:09:44;;;;;;;19.90;11.95;;;27.50;77.90;;;;;;5031596;28;20048;-67
2021/08/16 02:12:48;;;;;;;17.10;11.93;;;27.40;77.30;;;;;;5031254;28;20163;-68
2021/08/16 02:15:52;;;;;;;19.38;12.35;;;27.40;77.30;;;;;;5031184;28;20037;-68
2021/08/16 02:18:56;;;;;;;25.50;12.65;;;27.40;77.20;;;;;;5031257;28;20052;-68
2021/08/16 02:22:00;;;;;;;22.65;12.40;;;27.40;77.20;;;;;;5031093;28;20578;-67
2021/08/16 02:25:04;;;;;;;23.20;13.55;;;27.30;77.40;;;;;;5031100;28;20129;-67
2021/08/16 02:28:09;;;;;;;22.02;13.75;;;27.30;77.60;;;;;;5031127;28;20048;-68
2021/08/16 02:31:13;;;;;;;20.75;13.00;;;27.30;77.50;;;;;;5030960;28;20040;-68
2021/08/16 02:34:17;;;;;;;21.73;12.93;;;27.10;78.40;;;;;;5030954;28;20168;-68
2021/08/16 02:37:21;;;;;;;19.65;13.35;;;27.10;78.40;;;;;;5031076;28;20143;-67
2021/08/16 02:40:24;;;;;;;21.80;13.68;;;27.20;78.20;;;;;;5031139;28;20053;-67
2021/08/16 02:43:29;;;;;;;23.63;13.13;;;27.20;78.00;;;;;;5030175;28;20056;-68
2021/08/16 02:46:33;;;;;;;21.77;14.18;;;27.20;77.70;;;;;;5030340;28;20041;-67
2021/08/16 02:49:37;;;;;;;17.75;13.32;;;27.10;78.20;;;;;;5030775;28;20049;-67
2021/08/16 02:52:41;;;;;;;24.33;15.35;;;27.10;78.90;;;;;;5030881;28;20052;-68
2021/08/16 02:55:45;;;;;;;24.27;15.77;;;26.90;79.90;;;;;;5030713;28;20065;-68
2021/08/16 02:58:49;;;;;;;30.45;15.80;;;26.80;80.90;;;;;;5031017;28;20048;-68
2021/08/16 03:01:53;;;;;;;24.30;15.30;;;26.90;80.90;;;;;;5030928;28;20493;-68
2021/08/16 03:04:57;;;;;;;27.85;16.10;;;26.80;80.70;;;;;;5030702;28;20064;-68
2021/08/16 03:08:02;;;;;;;28.13;15.45;;;26.80;79.80;;;;;;5029987;28;20040;-68
2021/08/16 03:11:08;;;;;;;18.65;14.43;;;26.60;80.20;;;;;;5030751;28;20132;-68
2021/08/16 03:14:12;;;;;;;22.02;14.18;;;26.50;80.20;;;;;;5030631;28;20061;-68
2021/08/16 03:17:16;;;;;;;22.70;14.52;;;26.60;79.80;;;;;;5030649;28;20037;-68
2021/08/16 03:20:20;;;;;;;20.17;13.88;;;26.60;79.60;;;;;;5052875;28;20044;-68
2021/08/16 03:23:24;;;;;;;20.98;13.90;;;26.50;79.70;;;;;;5030754;28;20053;-68
2021/08/16 03:26:28;;;;;;;20.08;12.80;;;26.60;78.70;;;;;;5030739;28;20044;-68
2021/08/16 03:29:32;;;;;;;21.75;12.57;;;26.70;78.20;;;;;;5029829;28;20508;-67
2021/08/16 03:32:36;;;;;;;19.90;13.45;;;26.70;78.10;;;;;;5029872;28;20056;-66
2021/08/16 03:35:40;;;;;;;20.98;12.18;;;26.70;77.90;;;;;;5030416;28;20048;-68
2021/08/16 03:38:44;;;;;;;23.50;12.10;;;26.60;77.60;;;;;;5030512;28;20056;-67
2021/08/16 03:41:48;;;;;;;26.65;12.88;;;26.60;77.10;;;;;;5030548;28;20045;-67
2021/08/16 03:44:52;;;;;;;19.13;12.20;;;26.60;77.40;;;;;;5030518;28;20044;-67
2021/08/16 03:47:57;;;;;;;16.33;11.98;;;26.60;77.30;;;;;;5030433;28;20037;-68
2021/08/16 03:51:01;;;;;;;19.77;13.10;;;26.60;77.10;;;;;;5030269;28;20048;-67
2021/08/16 03:54:05;;;;;;;26.42;13.45;;;26.60;77.30;;;;;;5030180;28;20121;-67
2021/08/16 03:57:08;;;;;;;24.70;13.88;;;26.40;78.00;;;;;;5030219;28;20036;-68
2021/08/16 04:00:13;;;;;;;23.13;13.45;;;26.20;78.80;;;;;;5032937;28;20045;-68
2021/08/16 04:03:17;;;;;;;21.13;13.75;;;26.10;79.10;;;;;;5033779;28;20044;-68
2021/08/16 04:06:21;;;;;;;19.45;13.27;;;26.10;78.80;;;;;;5034140;28;20061;-68
2021/08/16 04:09:25;;;;;;;19.80;13.27;;;26.10;78.60;;;;;;5033764;28;20045;-69
2021/08/16 04:12:29;;;;;;;19.73;14.00;;;26.10;78.40;;;;;;5033555;28;20504;-68
2021/08/16 04:15:34;;;;;;;23.67;13.63;;;26.10;78.30;;;;;;5032705;28;20068;-68
2021/08/16 04:18:38;;;;;;;19.50;13.80;;;26.10;78.40;;;;;;5033765;28;20044;-68
2021/08/16 04:21:42;;;;;;;21.63;13.20;;;26.10;78.70;;;;;;5033319;28;20055;-68
2021/08/16 04:24:46;;;;;;;26.50;14.20;;;26.10;78.90;;;;;;5033666;28;20044;-68
2021/08/16 04:27:50;;;;;;;25.08;13.60;;;26.20;78.60;;;;;;5033336;28;20060;-68
2021/08/16 04:30:54;;;;;;;22.58;13.52;;;26.20;78.80;;;;;;5033585;28;20053;-67
2021/08/16 04:33:58;;;;;;;35.03;15.52;;;26.20;78.90;;;;;;5033193;28;20421;-68
2021/08/16 04:37:02;;;;;;;26.13;14.18;;;26.20;78.90;;;;;;5033200;28;20040;-68
2021/08/16 04:40:07;;;;;;;31.42;15.43;;;26.20;79.00;;;;;;5033163;28;20511;-69
2021/08/16 04:43:11;;;;;;;24.60;13.50;;;26.10;79.40;;;;;;5033076;28;20045;-68
2021/08/16 04:46:15;;;;;;;30.85;14.65;;;26.10;79.50;;;;;;5032862;28;20048;-68
2021/08/16 04:49:19;;;;;;;24.38;13.40;;;26.00;79.90;;;;;;5033030;28;20057;-68
2021/08/16 04:52:24;;;;;;;28.70;13.73;;;26.00;80.00;;;;;;5032783;28;20073;-68
2021/08/16 04:55:28;;;;;;;23.63;15.18;;;26.10;79.80;;;;;;5032660;28;20108;-68
2021/08/16 04:58:31;;;;;;;24.70;13.65;;;26.20;79.70;;;;;;5032779;28;20508;-67
2021/08/16 05:01:36;;;;;;;28.45;14.80;;;26.30;79.70;;;;;;5032687;28;20060;-68
2021/08/16 05:04:40;;;;;;;27.27;14.55;;;26.20;79.70;;;;;;5031773;28;20397;-67
2021/08/16 05:07:55;;;;;;;21.25;14.57;;;26.20;79.50;;;;;;5032717;28;20389;-68
2021/08/16 05:10:59;;;;;;;35.53;15.77;;;26.50;78.70;;;;;;5032128;28;20050;-67
2021/08/16 05:14:03;;;;;;;25.80;16.60;;;26.40;78.50;;;;;;5032282;28;20507;-68
2021/08/16 05:17:06;;;;;;;27.70;15.32;;;26.40;78.80;;;;;;5032353;28;20113;-67
2021/08/16 05:20:11;;;;;;;24.85;15.20;;;26.70;78.00;;;;;;5032314;28;20049;-67
2021/08/16 05:23:19;;;;;;;23.35;15.95;;;27.30;76.10;;;;;;5032182;28;20051;-67
2021/08/16 05:26:23;;;;;;;26.63;16.23;;;28.00;74.10;;;;;;5031969;28;20060;-67
2021/08/16 05:29:28;;;;;;;33.90;17.23;;;28.60;72.20;;;;;;5032115;28;20036;-67
2021/08/16 05:32:32;;;;;;;28.50;16.55;;;29.10;70.80;;;;;;5031950;28;20044;-67
2021/08/16 05:35:36;;;;;;;31.55;17.55;;;29.40;69.90;;;;;;5031818;28;20049;-68
2021/08/16 05:38:40;;;;;;;50.85;18.38;;;29.60;69.40;;;;;;5031847;28;20056;-68
2021/08/16 05:41:44;;;;;;;43.95;17.80;;;29.70;69.00;;;;;;5031883;28;20044;-68
2021/08/16 05:44:48;;;;;;;44.72;18.13;;;29.50;69.40;;;;;;5031713;28;20049;-68
2021/08/16 05:47:52;;;;;;;43.58;18.65;;;29.30;70.50;;;;;;5032011;28;20049;-67
2021/08/16 05:50:55;;;;;;;33.67;20.45;;;29.10;70.70;;;;;;5053832;28;20060;-67
2021/08/16 05:53:59;;;;;;;29.20;18.05;;;29.20;70.80;;;;;;5031491;28;20508;-67
2021/08/16 05:57:04;;;;;;;32.63;18.55;;;29.40;70.30;;;;;;5031573;28;20044;-67
2021/08/16 06:00:08;;;;;;;30.42;18.13;;;29.60;69.70;;;;;;5031395;28;20042;-67
2021/08/16 06:03:12;;;;;;;34.72;19.23;;;29.80;69.80;;;;;;5031366;28;20519;-67
2021/08/16 06:06:16;;;;;;;36.92;17.85;;;29.80;69.60;;;;;;5031192;28;20064;-67
2021/08/16 06:09:21;;;;;;;27.63;17.10;;;29.90;69.40;;;;;;5031353;28;20401;-67
2021/08/16 06:12:25;;;;;;;26.05;16.85;;;30.10;69.40;;;;;;5030991;28;20045;-66
2021/08/16 06:15:29;;;;;;;31.02;16.55;;;30.50;68.80;;;;;;5031220;28;20068;-67
2021/08/16 06:18:32;;;;;;;25.60;16.15;;;30.90;67.90;;;;;;5031233;28;20040;-66
2021/08/16 06:21:40;;;;;;;23.40;15.77;;;31.20;67.00;;;;;;5052571;28;20052;-66
2021/08/16 06:24:44;;;;;;;23.98;15.27;;;31.50;66.60;;;;;;5031123;28;20056;-66
2021/08/16 06:27:48;;;;;;;26.35;14.38;;;31.80;65.80;;;;;;5031329;28;20041;-67
2021/08/16 06:30:52;;;;;;;43.33;15.15;;;31.90;65.20;;;;;;5030740;28;20236;-67
2021/08/16 06:33:56;;;;;;;18.85;12.57;;;32.00;65.50;;;;;;5031023;28;20200;-67
2021/08/16 06:37:00;;;;;;;23.65;12.95;;;32.20;65.10;;;;;;5031291;28;20377;-67
2021/08/16 06:40:06;;;;;;;32.70;14.00;;;32.40;65.30;;;;;;5031320;28;20496;-67
2021/08/16 06:43:10;;;;;;;24.80;12.48;;;32.60;65.10;;;;;;5018824;28;20362;-67
2021/08/16 06:46:15;;;;;;;23.00;12.68;;;32.60;64.90;;;;;;5031097;28;20052;-66
2021/08/16 06:49:20;;;;;;;31.65;12.68;;;32.50;66.90;;;;;;5030982;28;20056;-68
2021/08/16 06:52:24;;;;;;;25.15;11.95;;;32.60;66.00;;;;;;5031011;28;20493;-67
2021/08/16 06:55:28;;;;;;;27.88;12.15;;;32.90;66.30;;;;;;5030691;28;20433;-68
2021/08/16 06:58:33;;;;;;;22.80;11.05;;;33.20;66.30;;;;;;5030906;28;20045;-68
2021/08/16 07:01:37;;;;;;;21.50;11.18;;;33.40;66.60;;;;;;5030712;28;20401;-67
2021/08/16 07:04:41;;;;;;;19.33;11.50;;;33.60;67.60;;;;;;5030843;28;20036;-68
2021/08/16 07:07:47;;;;;;;27.52;11.75;;;33.80;67.30;;;;;;5031123;28;20064;-67
2021/08/16 07:10:51;;;;;;;17.45;11.50;;;34.10;66.80;;;;;;5030721;28;20040;-68
2021/08/16 07:13:55;;;;;;;16.10;11.25;;;34.30;65.90;;;;;;5030656;28;20048;-68
2021/08/16 07:16:58;;;;;;;20.73;11.10;;;34.10;66.50;;;;;;5029940;28;20052;-67
2021/08/16 07:20:04;;;;;;;18.10;11.25;;;34.20;66.40;;;;;;5030967;28;20424;-68
2021/08/16 07:23:08;;;;;;;21.85;10.50;;;34.30;66.20;;;;;;5030973;28;20061;-69
2021/08/16 07:26:12;;;;;;;14.05;9.65;;;34.70;65.80;;;;;;5030325;28;20045;-69
2021/08/16 07:29:16;;;;;;;21.30;10.23;;;35.00;64.00;;;;;;5030638;28;20045;-67
2021/08/16 07:32:20;;;;;;;16.73;9.20;;;35.00;63.30;;;;;;5030337;28;20036;-68
2021/08/16 07:35:25;;;;;;;22.38;11.05;;;35.00;64.20;;;;;;5034235;28;20065;-68
2021/08/16 07:38:29;;;;;;;18.77;10.77;;;35.10;63.40;;;;;;5034176;28;20044;-68
2021/08/16 07:41:33;;;;;;;21.73;9.82;;;35.00;64.00;;;;;;5034172;28;20040;-68
2021/08/16 07:44:37;;;;;;;27.83;9.98;;;35.20;63.40;;;;;;5034004;28;20044;-68
2021/08/16 07:47:40;;;;;;;19.23;9.80;;;35.20;63.00;;;;;;5034085;28;20087;-68
2021/08/16 07:50:45;;;;;;;16.30;10.02;;;35.30;63.80;;;;;;5034093;28;20389;-68
2021/08/16 07:53:49;;;;;;;26.70;11.35;;;35.50;63.40;;;;;;5033959;28;20060;-67
2021/08/16 07:56:52;;;;;;;23.00;10.05;;;35.40;63.40;;;;;;5033842;28;20489;-69
2021/08/16 07:59:57;;;;;;;12.40;10.30;;;35.30;64.70;;;;;;5033927;28;20064;-68
2021/08/16 08:03:00;;;;;;;13.60;9.82;;;35.60;64.00;;;;;;5033919;28;20045;-68
2021/08/16 08:06:06;;;;;;;23.52;10.10;;;35.50;63.50;;;;;;5033896;28;20041;-69
2021/08/16 08:09:10;;;;;;;34.30;11.50;;;35.30;63.90;;;;;;5032924;28;20053;-68
2021/08/16 08:12:14;;;;;;;16.42;10.07;;;35.20;64.70;;;;;;5033550;28;20040;-68
2021/08/16 08:15:18;;;;;;;16.95;9.40;;;35.30;65.20;;;;;;5033492;28;20052;-68
2021/08/16 08:18:22;;;;;;;15.57;9.40;;;35.20;66.10;;;;;;5033561;28;20048;-68
2021/08/16 08:21:26;;;;;;;26.65;11.85;;;35.30;65.60;;;;;;5032891;28;20536;-69
2021/08/16 08:24:30;;;;;;;21.05;8.80;;;35.30;66.00;;;;;;5033552;28;20040;-69
2021/08/16 08:27:34;;;;;;;21.35;8.43;;;35.30;64.80;;;;;;5033446;28;20397;-68
2021/08/16 08:30:42;;;;;;;17.80;8.07;;;35.50;63.80;;;;;;5033263;28;20196;-68
2021/08/16 08:33:46;;;;;;;13.30;7.28;;;35.40;62.80;;;;;;5033309;28;20413;-69
2021/08/16 08:36:50;;;;;;;17.15;6.95;;;35.50;62.50;;;;;;5033404;28;20048;-68
2021/08/16 08:39:54;;;;;;;14.38;7.68;;;35.80;62.20;;;;;;5033296;28;20048;-68
2021/08/16 08:42:58;;;;;;;24.92;7.13;;;36.10;60.40;;;;;;5033262;28;20389;-68
2021/08/16 08:46:03;;;;;;;25.67;7.07;;;35.90;60.10;;;;;;5032227;28;20041;-69
2021/08/16 08:49:10;;;;;;;19.38;7.43;;;35.50;61.00;;;;;;5032926;28;20305;-68
2021/08/16 08:52:14;;;;;;;21.52;8.35;;;35.20;61.10;;;;;;5033028;28;20060;-68
2021/08/16 08:55:18;;;;;;;20.13;8.05;;;35.20;62.30;;;;;;5031902;28;20496;-68
2021/08/16 08:58:22;;;;;;;17.02;7.70;;;35.30;60.90;;;;;;5032857;28;20044;-69
2021/08/16 09:01:27;;;;;;;19.63;7.97;;;35.10;61.50;;;;;;5032716;28;20045;-68
2021/08/16 09:04:31;;;;;;;15.15;6.60;;;34.90;62.10;;;;;;5032430;28;20052;-68
2021/08/16 09:07:37;;;;;;;23.85;7.68;;;34.80;60.70;;;;;;5032486;28;20040;-68
2021/08/16 09:10:41;;;;;;;11.45;5.93;;;34.80;58.00;;;;;;5032517;28;20041;-68
2021/08/16 09:13:59;;;;;;;21.75;7.10;;;34.70;58.70;;;;;;5020372;28;20056;-69
2021/08/16 09:17:03;;;;;;;13.98;6.78;;;34.80;60.10;;;;;;5032405;28;20536;-68
2021/08/16 09:20:16;;;;;;;23.23;7.10;;;34.90;60.00;;;;;;5032663;28;20040;-68
2021/08/16 09:23:21;;;;;;;19.15;7.05;;;35.10;58.80;;;;;;5033794;28;20054;-68
2021/08/16 09:26:28;;;;;;;21.52;7.45;;;35.30;58.50;;;;;;5032587;28;20048;-69
2021/08/16 09:29:32;;;;;;;16.60;7.13;;;35.30;58.00;;;;;;5033575;28;20053;-69
2021/08/16 09:32:36;;;;;;;17.25;7.07;;;35.40;58.00;;;;;;5033709;28;20401;-68
2021/08/16 09:35:50;;;;;;;30.63;7.43;;;35.60;57.50;;;;;;5032864;28;20057;-68
2021/08/16 09:38:54;;;;;;;23.23;7.45;;;35.50;56.20;;;;;;5033893;28;20508;-68
2021/08/16 09:41:59;;;;;;;18.13;7.50;;;35.20;56.00;;;;;;5033506;28;20492;-69
2021/08/16 09:45:04;;;;;;;30.00;7.75;;;35.20;57.40;;;;;;5032787;28;20040;-68
2021/08/16 09:48:18;;;;;;;19.35;7.15;;;35.20;56.30;;;;;;5031990;28;20039;-67
2021/08/16 09:51:23;;;;;;;24.50;7.78;;;35.20;56.50;;;;;;5032216;28;20048;-68
2021/08/16 09:54:28;;;;;;;17.45;7.55;;;35.30;57.00;;;;;;5031896;28;20052;-68
2021/08/16 09:57:33;;;;;;;18.27;7.18;;;35.50;58.10;;;;;;5031751;28;20401;-68
2021/08/16 10:00:38;;;;;;;18.33;6.63;;;35.80;57.50;;;;;;5031728;28;20043;-69
2021/08/16 10:03:42;;;;;;;17.83;6.85;;;35.90;57.10;;;;;;5031545;28;20049;-68
2021/08/16 10:06:48;;;;;;;19.35;7.45;;;36.00;56.80;;;;;;5031360;28;20049;-68
2021/08/16 10:09:56;;;;;;;18.58;7.47;;;36.10;57.70;;;;;;5031278;28;20048;-69
2021/08/16 10:13:03;;;;;;;29.38;8.32;;;36.30;58.50;;;;;;5031393;28;20037;-67
2021/08/16 10:16:13;;;;;;;18.17;7.60;;;36.30;58.20;;;;;;5031465;28;20045;-69
2021/08/16 10:19:40;;;;;;;27.90;8.13;;;36.30;57.90;;;;;;5031148;28;20042;-69
2021/08/16 10:22:45;;;;;;;21.85;7.38;;;36.30;57.70;;;;;;5031042;28;20056;-69
2021/08/16 10:25:53;;;;;;;27.13;7.28;;;36.30;57.40;;;;;;5031450;28;20045;-68
2021/08/16 10:29:00;;;;;;;28.05;7.75;;;36.30;57.30;;;;;;5031132;28;20044;-68
2021/08/16 10:32:08;;;;;;;35.10;7.82;;;36.30;57.60;;;;;;5031160;28;20049;-68
2021/08/16 10:35:14;;;;;;;22.35;6.97;;;36.30;58.10;;;;;;5030139;28;20056;-69
2021/08/16 10:38:19;;;;;;;18.08;7.03;;;36.30;57.60;;;;;;5031165;28;20040;-68
2021/08/16 10:41:24;;;;;;;27.80;7.75;;;36.20;58.60;;;;;;5030915;28;20044;-68
2021/08/16 10:44:43;;;;;;;21.63;7.00;;;36.20;58.70;;;;;;5030834;28;20373;-69
2021/08/16 10:47:58;;;;;;;23.40;7.38;;;36.10;58.30;;;;;;5031079;28;20053;-68
2021/08/16 10:51:06;;;;;;;22.77;7.80;;;36.10;58.90;;;;;;5031009;28;20393;-68
2021/08/16 10:54:32;;;;;;;29.33;7.72;;;36.00;58.30;;;;;;5030753;28;20056;-67
2021/08/16 10:57:37;;;;;;;27.42;7.40;;;35.80;58.90;;;;;;5030990;28;20045;-68
2021/08/16 11:00:41;;;;;;;18.75;6.85;;;35.80;59.40;;;;;;5030941;28;20056;-68
2021/08/16 11:03:55;;;;;;;23.45;7.22;;;35.70;59.60;;;;;;5030884;28;20044;-68
2021/08/16 11:07:05;;;;;;;21.08;8.00;;;35.60;60.10;;;;;;5030774;28;20291;-69
2021/08/16 11:10:11;;;;;;;18.75;6.65;;;35.60;60.20;;;;;;5035080;28;20056;-68
2021/08/16 11:13:18;;;;;;;22.55;8.38;;;35.70;60.10;;;;;;5034586;28;20040;-68
2021/08/16 11:16:22;;;;;;;25.35;7.88;;;35.80;59.10;;;;;;5034065;28;20048;-68
2021/08/16 11:19:38;;;;;;;16.27;6.93;;;35.80;58.00;;;;;;5034706;28;20393;-69
2021/08/16 11:22:53;;;;;;;22.88;7.15;;;35.70;58.00;;;;;;5034347;28;20405;-68
2021/08/16 11:25:58;;;;;;;21.27;7.65;;;35.70;57.70;;;;;;5034634;28;20045;-69
2021/08/16 11:29:06;;;;;;;25.83;7.88;;;35.70;57.20;;;;;;5034478;28;20048;-68
2021/08/16 11:32:10;;;;;;;20.85;7.13;;;35.80;57.20;;;;;;5034592;28;20412;-69
2021/08/16 11:35:14;;;;;;;23.73;6.85;;;35.80;55.90;;;;;;5034234;28;20401;-69
2021/08/16 11:38:18;;;;;;;25.02;7.13;;;35.70;55.60;;;;;;5034432;28;20036;-69
2021/08/16 11:41:29;;;;;;;29.60;7.75;;;35.60;53.10;;;;;;5034152;28;20048;-68
2021/08/16 11:44:33;;;;;;;21.92;6.18;;;35.40;55.30;;;;;;5034275;28;20041;-68
2021/08/16 11:47:40;;;;;;;21.23;6.68;;;35.30;56.40;;;;;;5034321;28;20048;-68
2021/08/16 11:50:44;;;;;;;23.92;7.45;;;35.20;56.40;;;;;;5034065;28;20040;-68
2021/08/16 11:53:49;;;;;;;21.92;6.47;;;35.20;56.80;;;;;;5034083;28;20057;-69
2021/08/16 11:56:55;;;;;;;20.15;6.03;;;35.20;56.50;;;;;;5033887;28;20104;-68
2021/08/16 12:00:06;;;;;;;27.50;7.20;;;35.30;56.20;;;;;;5033936;28;20052;-69
2021/08/16 12:03:15;;;;;;;21.92;6.70;;;35.30;56.20;;;;;;5033756;28;20074;-69
2021/08/16 12:06:19;;;;;;;27.40;7.22;;;35.40;55.80;;;;;;5034058;28;20045;-69
2021/08/16 12:09:37;;;;;;;34.55;9.15;;;35.40;54.60;;;;;;5034137;28;20060;-69
2021/08/16 12:12:41;;;;;;;20.50;6.18;;;35.50;54.10;;;;;;5033488;28;20040;-69
2021/08/16 12:15:53;;;;;;;24.38;6.13;;;35.40;55.10;;;;;;5033647;28;20517;-68
2021/08/16 12:18:58;;;;;;;26.02;7.80;;;35.40;55.80;;;;;;5033513;28;20037;-68
2021/08/16 12:22:06;;;;;;;21.92;6.55;;;35.40;57.10;;;;;;5033578;28;20049;-68
2021/08/16 12:24:43;;;;;;;26.17;7.22;;;35.40;56.80;;;;;;5108623;27;20736;-69
2021/08/16 12:27:19;;;;;;;31.10;7.03;;;35.30;58.50;;;;;;5068434;28;20153;-68
2021/08/16 12:29:58;;;;;;;27.10;7.32;;;35.20;57.80;;;;;;5068442;28;20398;-69
2021/08/16 12:32:36;;;;;;;29.08;6.20;;;35.20;58.90;;;;;;5109332;27;20964;-69
2021/08/16 12:35:20;;;;;;;23.65;7.15;;;35.20;57.10;;;;;;5068422;28;20142;-69
2021/08/16 12:38:01;;;;;;;27.95;6.38;;;35.20;56.80;;;;;;5108908;27;20380;-68
2021/08/16 12:40:38;;;;;;;28.27;7.57;;;35.20;57.80;;;;;;5088782;27;20385;-68
2021/08/16 12:43:17;;;;;;;20.58;7.10;;;35.10;59.20;;;;;;5068837;28;20391;-69
2021/08/16 12:45:56;;;;;;;24.65;6.13;;;35.00;59.30;;;;;;5068369;28;20387;-68
2021/08/16 12:48:40;;;;;;;24.75;6.47;;;35.00;59.10;;;;;;5068373;28;20394;-69
2021/08/16 12:51:17;;;;;;;20.60;7.55;;;34.90;59.40;;;;;;5068515;28;20905;-68
2021/08/16 12:53:57;;;;;;;24.10;6.75;;;34.90;59.80;;;;;;5068672;28;20138;-68
2021/08/16 12:56:34;;;;;;;24.75;6.10;;;34.80;58.00;;;;;;5068126;28;20387;-68
2021/08/16 12:59:10;;;;;;;21.25;6.45;;;34.80;58.80;;;;;;5068375;28;20180;-69
2021/08/16 13:01:55;;;;;;;26.23;7.15;;;34.70;60.10;;;;;;5068570;28;20142;-69
2021/08/16 13:04:32;;;;;;;26.17;6.28;;;34.60;59.50;;;;;;5068697;28;20383;-68
2021/08/16 13:07:10;;;;;;;31.60;7.53;;;34.60;58.40;;;;;;5088560;28;20799;-69
2021/08/16 13:09:48;;;;;;;31.05;7.43;;;34.60;57.40;;;;;;5068703;28;21051;-69
2021/08/16 13:12:25;;;;;;;28.80;7.15;;;34.50;57.30;;;;;;5105264;27;1338565;-68
2021/08/16 13:15:04;;;;;;;23.02;6.20;;;34.50;57.80;;;;;;5068332;28;20910;-68
2021/08/16 13:17:41;;;;;;;37.00;7.57;;;34.50;58.00;;;;;;5068378;28;20390;-67
2021/08/16 13:20:18;;;;;;;31.35;7.60;;;34.50;58.30;;;;;;5129584;27;20136;-69
2021/08/16 13:22:54;;;;;;;28.45;7.45;;;34.50;58.20;;;;;;5109374;27;20145;-68
2021/08/16 13:25:34;;;;;;;27.10;6.05;;;34.50;58.50;;;;;;5068411;28;20139;-69
2021/08/16 13:28:11;;;;;;;21.98;6.25;;;34.50;56.80;;;;;;5068299;28;20390;-68
2021/08/16 13:30:47;;;;;;;25.85;6.65;;;34.60;56.20;;;;;;5068521;28;20135;-68
2021/08/16 13:33:24;;;;;;;33.75;6.30;;;34.50;57.60;;;;;;5068463;28;20522;-69
2021/08/16 13:36:01;;;;;;;30.20;7.63;;;34.50;56.10;;;;;;5068466;28;20142;-68
2021/08/16 13:38:37;;;;;;;26.55;5.70;;;34.50;56.60;;;;;;5088731;28;20149;-68
2021/08/16 13:41:14;;;;;;;22.60;6.38;;;34.40;55.10;;;;;;5088738;28;20513;-68
2021/08/16 13:43:50;;;;;;;27.05;6.50;;;34.40;57.30;;;;;;5109032;27;20182;-69
2021/08/16 13:46:27;;;;;;;21.60;5.25;;;34.40;57.50;;;;;;5068484;28;20138;-69
2021/08/16 13:49:04;;;;;;;27.92;7.10;;;34.40;56.50;;;;;;5068599;28;20143;-68
2021/08/16 13:51:41;;;;;;;26.83;7.20;;;34.40;56.80;;;;;;5068409;28;20391;-68
2021/08/16 13:54:19;;;;;;;18.08;6.40;;;34.40;57.70;;;;;;5108927;27;20128;-69
2021/08/16 13:56:57;;;;;;;18.23;5.53;;;34.30;56.90;;;;;;5068398;28;20395;-69
2021/08/16 13:59:35;;;;;;;17.35;4.90;;;34.30;56.60;;;;;;5068480;28;20937;-68
2021/08/16 14:02:11;;;;;;;19.13;4.88;;;34.30;56.00;;;;;;5068505;28;20715;-68
2021/08/16 14:04:50;;;;;;;26.73;6.00;;;34.30;55.40;;;;;;5108943;27;20392;-70
2021/08/16 14:07:28;;;;;;;20.05;5.00;;;34.30;55.10;;;;;;5068403;28;20933;-68
2021/08/16 14:10:05;;;;;;;29.35;4.90;;;34.30;54.90;;;;;;5068871;28;20142;-68
2021/08/16 14:12:42;;;;;;;22.75;5.32;;;34.30;54.90;;;;;;5107029;27;1320595;-68
2021/08/16 14:15:19;;;;;;;18.30;5.18;;;34.20;54.60;;;;;;5068376;28;20383;-68
2021/08/16 14:17:56;;;;;;;22.40;4.63;;;34.20;54.30;;;;;;5068262;28;20146;-68
2021/08/16 14:20:32;;;;;;;19.67;6.13;;;34.10;54.40;;;;;;5068345;28;20134;-69
2021/08/16 14:23:11;;;;;;;14.38;4.55;;;34.10;54.20;;;;;;5068636;28;20394;-67
2021/08/16 14:25:50;;;;;;;13.18;5.07;;;34.10;54.20;;;;;;5088726;28;20385;-68
2021/08/16 14:28:27;;;;;;;13.82;5.45;;;34.10;54.00;;;;;;5068469;28;20917;-68
2021/08/16 14:31:06;;;;;;;14.02;5.43;;;34.10;54.00;;;;;;5068418;28;20386;-68
2021/08/16 14:33:43;;;;;;;22.67;4.65;;;34.10;53.30;;;;;;5068522;28;20387;-68
2021/08/16 14:36:20;;;;;;;16.42;4.32;;;34.10;52.90;;;;;;5068345;28;20142;-67
2021/08/16 14:38:57;;;;;;;12.57;4.57;;;34.10;52.40;;;;;;5068631;28;20138;-68
2021/08/16 14:41:36;;;;;;;16.70;4.28;;;34.10;52.10;;;;;;5068617;28;20398;-68
2021/08/16 14:44:13;;;;;;;14.32;4.00;;;34.10;52.00;;;;;;5068582;28;20398;-68
2021/08/16 14:46:50;;;;;;;10.60;3.70;;;34.10;51.00;;;;;;5088628;27;20141;-68
2021/08/16 14:49:27;;;;;;;19.33;4.72;;;34.10;51.30;;;;;;5109133;27;20501;-68
2021/08/16 14:52:06;;;;;;;10.60;4.30;;;34.10;51.00;;;;;;5068496;28;20387;-68
2021/08/16 14:54:43;;;;;;;11.30;4.10;;;34.00;50.70;;;;;;5068463;28;20395;-68
2021/08/16 14:57:19;;;;;;;9.95;3.92;;;34.10;50.40;;;;;;5068610;28;20513;-69
2021/08/16 14:59:56;;;;;;;13.13;4.30;;;34.10;50.10;;;;;;5068869;28;20146;-69
2021/08/16 15:02:34;;;;;;;11.88;4.13;;;34.10;49.70;;;;;;5006525;28;20395;-68
2021/08/16 15:05:12;;;;;;;15.63;4.85;;;34.00;49.70;;;;;;5106940;27;1322919;-68
2021/08/16 15:07:49;;;;;;;9.65;4.00;;;33.90;49.30;;;;;;5068485;28;20952;-68
2021/08/16 15:10:25;;;;;;;30.02;5.32;;;33.90;49.80;;;;;;5068526;28;20142;-68
2021/08/16 15:13:03;;;;;;;11.05;4.43;;;33.90;50.90;;;;;;5068460;28;20138;-68